<?xml version="1.0" encoding="UTF-8" standalone="no" ?>
<gpx xmlns="http://www.topografix.com/GPX/1/1" xmlns:xsi="http://www.w3.org/2001/XMLSchema-instance" xsi:schemaLocation="http://www.topografix.com/GPX/1/1 http://www.topografix.com/GPX/1/1/gpx.xsd" version="1.1" creator="VisuGPX - https://www.visugpx.com">
  <metadata>
    <name>J5-Beaufor-Refuge Arolles - Les Carroz</name>
  </metadata>
  <trk>
    <name><![CDATA[J5-Beaufor-Refuge Arolles - Les Carroz]]></name>
    <trkseg>
      <trkpt lat="45.65697" lon="6.53359">
        <ele>1879</ele>
        <time>2022-06-09T20:55:34Z</time>
      </trkpt>
      <trkpt lat="45.65647" lon="6.53384">
        <ele>1874</ele>
        <time>2022-06-09T20:55:46Z</time>
      </trkpt>
      <trkpt lat="45.65615" lon="6.53382">
        <ele>1869</ele>
        <time>2022-06-09T20:55:54Z</time>
      </trkpt>
      <trkpt lat="45.6562" lon="6.53402">
        <ele>1865</ele>
        <time>2022-06-09T20:55:57Z</time>
      </trkpt>
      <trkpt lat="45.65588" lon="6.53402">
        <ele>1861</ele>
        <time>2022-06-09T20:56:05Z</time>
      </trkpt>
      <trkpt lat="45.65549" lon="6.53387">
        <ele>1863</ele>
        <time>2022-06-09T20:56:14Z</time>
      </trkpt>
      <trkpt lat="45.65551" lon="6.53411">
        <ele>1858</ele>
        <time>2022-06-09T20:56:18Z</time>
      </trkpt>
      <trkpt lat="45.65525" lon="6.53416">
        <ele>1857</ele>
        <time>2022-06-09T20:56:24Z</time>
      </trkpt>
      <trkpt lat="45.6551" lon="6.53456">
        <ele>1850</ele>
        <time>2022-06-09T20:56:32Z</time>
      </trkpt>
      <trkpt lat="45.65505" lon="6.53525">
        <ele>1838</ele>
        <time>2022-06-09T20:56:43Z</time>
      </trkpt>
      <trkpt lat="45.6549" lon="6.53595">
        <ele>1837</ele>
        <time>2022-06-09T20:56:55Z</time>
      </trkpt>
      <trkpt lat="45.65535" lon="6.53777">
        <ele>1806</ele>
        <time>2022-06-09T20:57:26Z</time>
      </trkpt>
      <trkpt lat="45.65527" lon="6.53813">
        <ele>1808</ele>
        <time>2022-06-09T20:57:33Z</time>
      </trkpt>
      <trkpt lat="45.65523" lon="6.5393">
        <ele>1787</ele>
        <time>2022-06-09T20:57:52Z</time>
      </trkpt>
      <trkpt lat="45.65499" lon="6.53945">
        <ele>1790</ele>
        <time>2022-06-09T20:57:58Z</time>
      </trkpt>
      <trkpt lat="45.65475" lon="6.53926">
        <ele>1803</ele>
        <time>2022-06-09T20:58:04Z</time>
      </trkpt>
      <trkpt lat="45.65446" lon="6.53914">
        <ele>1817</ele>
        <time>2022-06-09T20:58:11Z</time>
      </trkpt>
      <trkpt lat="45.65436" lon="6.53883">
        <ele>1832</ele>
        <time>2022-06-09T20:58:17Z</time>
      </trkpt>
      <trkpt lat="45.65397" lon="6.53895">
        <ele>1839</ele>
        <time>2022-06-09T20:58:26Z</time>
      </trkpt>
      <trkpt lat="45.65386" lon="6.53872">
        <ele>1851</ele>
        <time>2022-06-09T20:58:31Z</time>
      </trkpt>
      <trkpt lat="45.65391" lon="6.53859">
        <ele>1854</ele>
        <time>2022-06-09T20:58:33Z</time>
      </trkpt>
      <trkpt lat="45.65368" lon="6.53849">
        <ele>1862</ele>
        <time>2022-06-09T20:58:39Z</time>
      </trkpt>
      <trkpt lat="45.65341" lon="6.53829">
        <ele>1873</ele>
        <time>2022-06-09T20:58:46Z</time>
      </trkpt>
      <trkpt lat="45.6532" lon="6.5382">
        <ele>1880</ele>
        <time>2022-06-09T20:58:51Z</time>
      </trkpt>
      <trkpt lat="45.65304" lon="6.53837">
        <ele>1878</ele>
        <time>2022-06-09T20:58:56Z</time>
      </trkpt>
      <trkpt lat="45.65252" lon="6.53836">
        <ele>1888</ele>
        <time>2022-06-09T20:59:08Z</time>
      </trkpt>
      <trkpt lat="45.65233" lon="6.5382">
        <ele>1901</ele>
        <time>2022-06-09T20:59:13Z</time>
      </trkpt>
      <trkpt lat="45.65196" lon="6.53866">
        <ele>1904</ele>
        <time>2022-06-09T20:59:24Z</time>
      </trkpt>
      <trkpt lat="45.65191" lon="6.53894">
        <ele>1899</ele>
        <time>2022-06-09T20:59:29Z</time>
      </trkpt>
      <trkpt lat="45.65157" lon="6.53895">
        <ele>1908</ele>
        <time>2022-06-09T20:59:37Z</time>
      </trkpt>
      <trkpt lat="45.65071" lon="6.53879">
        <ele>1921</ele>
        <time>2022-06-09T20:59:57Z</time>
      </trkpt>
      <trkpt lat="45.64998" lon="6.53792">
        <ele>1943</ele>
        <time>2022-06-09T21:00:20Z</time>
      </trkpt>
      <trkpt lat="45.64937" lon="6.53761">
        <ele>1945</ele>
        <time>2022-06-09T21:00:35Z</time>
      </trkpt>
      <trkpt lat="45.64918" lon="6.53754">
        <ele>1944</ele>
        <time>2022-06-09T21:00:39Z</time>
      </trkpt>
      <trkpt lat="45.64874" lon="6.53708">
        <ele>1949</ele>
        <time>2022-06-09T21:00:52Z</time>
      </trkpt>
      <trkpt lat="45.64839" lon="6.53705">
        <ele>1947</ele>
        <time>2022-06-09T21:01:00Z</time>
      </trkpt>
      <trkpt lat="45.6476" lon="6.53682">
        <ele>1943</ele>
        <time>2022-06-09T21:01:19Z</time>
      </trkpt>
      <trkpt lat="45.64713" lon="6.53652">
        <ele>1946</ele>
        <time>2022-06-09T21:01:31Z</time>
      </trkpt>
      <trkpt lat="45.64632" lon="6.53637">
        <ele>1952</ele>
        <time>2022-06-09T21:01:50Z</time>
      </trkpt>
      <trkpt lat="45.64539" lon="6.53588">
        <ele>1978</ele>
        <time>2022-06-09T21:02:13Z</time>
      </trkpt>
      <trkpt lat="45.64506" lon="6.53607">
        <ele>1978</ele>
        <time>2022-06-09T21:02:22Z</time>
      </trkpt>
      <trkpt lat="45.64479" lon="6.53662">
        <ele>1984</ele>
        <time>2022-06-09T21:02:32Z</time>
      </trkpt>
      <trkpt lat="45.64495" lon="6.53699">
        <ele>1980</ele>
        <time>2022-06-09T21:02:40Z</time>
      </trkpt>
      <trkpt lat="45.64505" lon="6.53793">
        <ele>1987</ele>
        <time>2022-06-09T21:02:55Z</time>
      </trkpt>
      <trkpt lat="45.64508" lon="6.53851">
        <ele>1987</ele>
        <time>2022-06-09T21:03:05Z</time>
      </trkpt>
      <trkpt lat="45.64511" lon="6.53895">
        <ele>1980</ele>
        <time>2022-06-09T21:03:12Z</time>
      </trkpt>
      <trkpt lat="45.64496" lon="6.53941">
        <ele>1977</ele>
        <time>2022-06-09T21:03:20Z</time>
      </trkpt>
      <trkpt lat="45.64492" lon="6.54012">
        <ele>1973</ele>
        <time>2022-06-09T21:03:32Z</time>
      </trkpt>
      <trkpt lat="45.645" lon="6.54063">
        <ele>1968</ele>
        <time>2022-06-09T21:03:40Z</time>
      </trkpt>
      <trkpt lat="45.64498" lon="6.5411">
        <ele>1973</ele>
        <time>2022-06-09T21:03:48Z</time>
      </trkpt>
      <trkpt lat="45.64505" lon="6.5416">
        <ele>1977</ele>
        <time>2022-06-09T21:03:56Z</time>
      </trkpt>
      <trkpt lat="45.64488" lon="6.54198">
        <ele>1994</ele>
        <time>2022-06-09T21:04:04Z</time>
      </trkpt>
      <trkpt lat="45.64446" lon="6.54238">
        <ele>2008</ele>
        <time>2022-06-09T21:04:15Z</time>
      </trkpt>
      <trkpt lat="45.64417" lon="6.54241">
        <ele>2010</ele>
        <time>2022-06-09T21:04:22Z</time>
      </trkpt>
      <trkpt lat="45.6439" lon="6.54254">
        <ele>2008</ele>
        <time>2022-06-09T21:04:29Z</time>
      </trkpt>
      <trkpt lat="45.64386" lon="6.54306">
        <ele>2010</ele>
        <time>2022-06-09T21:04:37Z</time>
      </trkpt>
      <trkpt lat="45.64391" lon="6.54329">
        <ele>2012</ele>
        <time>2022-06-09T21:04:41Z</time>
      </trkpt>
      <trkpt lat="45.64405" lon="6.54345">
        <ele>2015</ele>
        <time>2022-06-09T21:04:46Z</time>
      </trkpt>
      <trkpt lat="45.64422" lon="6.54382">
        <ele>2020</ele>
        <time>2022-06-09T21:04:53Z</time>
      </trkpt>
      <trkpt lat="45.6446" lon="6.54421">
        <ele>2035</ele>
        <time>2022-06-09T21:05:04Z</time>
      </trkpt>
      <trkpt lat="45.64476" lon="6.5448">
        <ele>2046</ele>
        <time>2022-06-09T21:05:14Z</time>
      </trkpt>
      <trkpt lat="45.6451" lon="6.54514">
        <ele>2051</ele>
        <time>2022-06-09T21:05:24Z</time>
      </trkpt>
      <trkpt lat="45.64534" lon="6.54594">
        <ele>2053</ele>
        <time>2022-06-09T21:05:38Z</time>
      </trkpt>
      <trkpt lat="45.64558" lon="6.54702">
        <ele>2054</ele>
        <time>2022-06-09T21:05:56Z</time>
      </trkpt>
      <trkpt lat="45.64581" lon="6.54764">
        <ele>2050</ele>
        <time>2022-06-09T21:06:08Z</time>
      </trkpt>
      <trkpt lat="45.64615" lon="6.5482">
        <ele>2045</ele>
        <time>2022-06-09T21:06:20Z</time>
      </trkpt>
      <trkpt lat="45.64685" lon="6.54958">
        <ele>2031</ele>
        <time>2022-06-09T21:06:48Z</time>
      </trkpt>
      <trkpt lat="45.64704" lon="6.55022">
        <ele>2030</ele>
        <time>2022-06-09T21:06:59Z</time>
      </trkpt>
      <trkpt lat="45.64725" lon="6.55127">
        <ele>2031</ele>
        <time>2022-06-09T21:07:17Z</time>
      </trkpt>
      <trkpt lat="45.64735" lon="6.55203">
        <ele>2035</ele>
        <time>2022-06-09T21:07:30Z</time>
      </trkpt>
      <trkpt lat="45.64735" lon="6.55223">
        <ele>2037</ele>
        <time>2022-06-09T21:07:33Z</time>
      </trkpt>
      <trkpt lat="45.64754" lon="6.55315">
        <ele>2048</ele>
        <time>2022-06-09T21:07:49Z</time>
      </trkpt>
      <trkpt lat="45.64779" lon="6.55342">
        <ele>2052</ele>
        <time>2022-06-09T21:07:56Z</time>
      </trkpt>
      <trkpt lat="45.64811" lon="6.55381">
        <ele>2064</ele>
        <time>2022-06-09T21:08:06Z</time>
      </trkpt>
      <trkpt lat="45.64866" lon="6.55405">
        <ele>2061</ele>
        <time>2022-06-09T21:08:19Z</time>
      </trkpt>
      <trkpt lat="45.64899" lon="6.55473">
        <ele>2080</ele>
        <time>2022-06-09T21:08:33Z</time>
      </trkpt>
      <trkpt lat="45.64943" lon="6.55502">
        <ele>2067</ele>
        <time>2022-06-09T21:08:44Z</time>
      </trkpt>
      <trkpt lat="45.64963" lon="6.55548">
        <ele>2068</ele>
        <time>2022-06-09T21:08:53Z</time>
      </trkpt>
      <trkpt lat="45.6497" lon="6.55571">
        <ele>2071</ele>
        <time>2022-06-09T21:08:57Z</time>
      </trkpt>
      <trkpt lat="45.64975" lon="6.55691">
        <ele>2082</ele>
        <time>2022-06-09T21:09:17Z</time>
      </trkpt>
      <trkpt lat="45.64997" lon="6.5576">
        <ele>2073</ele>
        <time>2022-06-09T21:09:29Z</time>
      </trkpt>
      <trkpt lat="45.64998" lon="6.55814">
        <ele>2069</ele>
        <time>2022-06-09T21:09:38Z</time>
      </trkpt>
      <trkpt lat="45.64997" lon="6.55844">
        <ele>2068</ele>
        <time>2022-06-09T21:09:43Z</time>
      </trkpt>
      <trkpt lat="45.65005" lon="6.55902">
        <ele>2068</ele>
        <time>2022-06-09T21:09:52Z</time>
      </trkpt>
      <trkpt lat="45.65022" lon="6.55927">
        <ele>2066</ele>
        <time>2022-06-09T21:09:58Z</time>
      </trkpt>
      <trkpt lat="45.65047" lon="6.55937">
        <ele>2061</ele>
        <time>2022-06-09T21:10:04Z</time>
      </trkpt>
      <trkpt lat="45.65093" lon="6.56004">
        <ele>2059</ele>
        <time>2022-06-09T21:10:19Z</time>
      </trkpt>
      <trkpt lat="45.65106" lon="6.56021">
        <ele>2059</ele>
        <time>2022-06-09T21:10:23Z</time>
      </trkpt>
      <trkpt lat="45.65111" lon="6.56039">
        <ele>2059</ele>
        <time>2022-06-09T21:10:27Z</time>
      </trkpt>
      <trkpt lat="45.65125" lon="6.56098">
        <ele>2057</ele>
        <time>2022-06-09T21:10:37Z</time>
      </trkpt>
      <trkpt lat="45.65169" lon="6.5614">
        <ele>2055</ele>
        <time>2022-06-09T21:10:49Z</time>
      </trkpt>
      <trkpt lat="45.65197" lon="6.56171">
        <ele>2051</ele>
        <time>2022-06-09T21:10:57Z</time>
      </trkpt>
      <trkpt lat="45.65237" lon="6.56184">
        <ele>2050</ele>
        <time>2022-06-09T21:11:07Z</time>
      </trkpt>
      <trkpt lat="45.65287" lon="6.56224">
        <ele>2042</ele>
        <time>2022-06-09T21:11:20Z</time>
      </trkpt>
      <trkpt lat="45.65312" lon="6.5626">
        <ele>2035</ele>
        <time>2022-06-09T21:11:29Z</time>
      </trkpt>
      <trkpt lat="45.65363" lon="6.56301">
        <ele>2021</ele>
        <time>2022-06-09T21:11:42Z</time>
      </trkpt>
      <trkpt lat="45.65483" lon="6.56336">
        <ele>1994</ele>
        <time>2022-06-09T21:12:11Z</time>
      </trkpt>
      <trkpt lat="45.65544" lon="6.5631">
        <ele>1986</ele>
        <time>2022-06-09T21:12:26Z</time>
      </trkpt>
      <trkpt lat="45.65597" lon="6.56326">
        <ele>1981</ele>
        <time>2022-06-09T21:12:38Z</time>
      </trkpt>
      <trkpt lat="45.65726" lon="6.56356">
        <ele>1978</ele>
        <time>2022-06-09T21:13:09Z</time>
      </trkpt>
      <trkpt lat="45.65774" lon="6.56382">
        <ele>1978</ele>
        <time>2022-06-09T21:13:21Z</time>
      </trkpt>
      <trkpt lat="45.65772" lon="6.56331">
        <ele>1984</ele>
        <time>2022-06-09T21:13:29Z</time>
      </trkpt>
      <trkpt lat="45.65787" lon="6.56308">
        <ele>1985</ele>
        <time>2022-06-09T21:13:34Z</time>
      </trkpt>
      <trkpt lat="45.65802" lon="6.56301">
        <ele>1985</ele>
        <time>2022-06-09T21:13:38Z</time>
      </trkpt>
      <trkpt lat="45.65816" lon="6.56289">
        <ele>1985</ele>
        <time>2022-06-09T21:13:42Z</time>
      </trkpt>
      <trkpt lat="45.65819" lon="6.5632">
        <ele>1987</ele>
        <time>2022-06-09T21:13:47Z</time>
      </trkpt>
      <trkpt lat="45.65831" lon="6.56366">
        <ele>1985</ele>
        <time>2022-06-09T21:13:55Z</time>
      </trkpt>
      <trkpt lat="45.65819" lon="6.56328">
        <ele>1987</ele>
        <time>2022-06-09T21:14:02Z</time>
      </trkpt>
      <trkpt lat="45.65816" lon="6.5629">
        <ele>1985</ele>
        <time>2022-06-09T21:14:08Z</time>
      </trkpt>
      <trkpt lat="45.65798" lon="6.56305">
        <ele>1985</ele>
        <time>2022-06-09T21:14:13Z</time>
      </trkpt>
      <trkpt lat="45.65788" lon="6.5631">
        <ele>1985</ele>
        <time>2022-06-09T21:14:15Z</time>
      </trkpt>
      <trkpt lat="45.65771" lon="6.56334">
        <ele>1983</ele>
        <time>2022-06-09T21:14:21Z</time>
      </trkpt>
      <trkpt lat="45.65774" lon="6.56382">
        <ele>1978</ele>
        <time>2022-06-09T21:14:29Z</time>
      </trkpt>
      <trkpt lat="45.65804" lon="6.56411">
        <ele>1977</ele>
        <time>2022-06-09T21:14:37Z</time>
      </trkpt>
      <trkpt lat="45.65822" lon="6.56435">
        <ele>1975</ele>
        <time>2022-06-09T21:14:43Z</time>
      </trkpt>
      <trkpt lat="45.65831" lon="6.5647">
        <ele>1968</ele>
        <time>2022-06-09T21:14:49Z</time>
      </trkpt>
      <trkpt lat="45.65901" lon="6.56498">
        <ele>1950</ele>
        <time>2022-06-09T21:15:06Z</time>
      </trkpt>
      <trkpt lat="45.65952" lon="6.56532">
        <ele>1934</ele>
        <time>2022-06-09T21:15:19Z</time>
      </trkpt>
      <trkpt lat="45.65985" lon="6.5655">
        <ele>1925</ele>
        <time>2022-06-09T21:15:28Z</time>
      </trkpt>
      <trkpt lat="45.65995" lon="6.56586">
        <ele>1922</ele>
        <time>2022-06-09T21:15:34Z</time>
      </trkpt>
      <trkpt lat="45.66036" lon="6.5657">
        <ele>1911</ele>
        <time>2022-06-09T21:15:44Z</time>
      </trkpt>
      <trkpt lat="45.66084" lon="6.56523">
        <ele>1898</ele>
        <time>2022-06-09T21:15:57Z</time>
      </trkpt>
      <trkpt lat="45.66122" lon="6.56517">
        <ele>1888</ele>
        <time>2022-06-09T21:16:06Z</time>
      </trkpt>
      <trkpt lat="45.6615" lon="6.565">
        <ele>1880</ele>
        <time>2022-06-09T21:16:13Z</time>
      </trkpt>
      <trkpt lat="45.66177" lon="6.56529">
        <ele>1877</ele>
        <time>2022-06-09T21:16:21Z</time>
      </trkpt>
      <trkpt lat="45.66206" lon="6.56444">
        <ele>1863</ele>
        <time>2022-06-09T21:16:37Z</time>
      </trkpt>
      <trkpt lat="45.66242" lon="6.56426">
        <ele>1851</ele>
        <time>2022-06-09T21:16:46Z</time>
      </trkpt>
      <trkpt lat="45.66237" lon="6.56348">
        <ele>1844</ele>
        <time>2022-06-09T21:16:58Z</time>
      </trkpt>
      <trkpt lat="45.66268" lon="6.56319">
        <ele>1830</ele>
        <time>2022-06-09T21:17:07Z</time>
      </trkpt>
      <trkpt lat="45.66318" lon="6.56348">
        <ele>1813</ele>
        <time>2022-06-09T21:17:20Z</time>
      </trkpt>
      <trkpt lat="45.66339" lon="6.56382">
        <ele>1812</ele>
        <time>2022-06-09T21:17:27Z</time>
      </trkpt>
      <trkpt lat="45.664" lon="6.56435">
        <ele>1800</ele>
        <time>2022-06-09T21:17:44Z</time>
      </trkpt>
      <trkpt lat="45.66536" lon="6.56473">
        <ele>1749</ele>
        <time>2022-06-09T21:18:16Z</time>
      </trkpt>
      <trkpt lat="45.66859" lon="6.56563">
        <ele>1703</ele>
        <time>2022-06-09T21:19:33Z</time>
      </trkpt>
      <trkpt lat="45.66902" lon="6.56544">
        <ele>1698</ele>
        <time>2022-06-09T21:19:43Z</time>
      </trkpt>
      <trkpt lat="45.66937" lon="6.56521">
        <ele>1691</ele>
        <time>2022-06-09T21:19:52Z</time>
      </trkpt>
      <trkpt lat="45.66981" lon="6.56544">
        <ele>1687</ele>
        <time>2022-06-09T21:20:03Z</time>
      </trkpt>
      <trkpt lat="45.67005" lon="6.5655">
        <ele>1684</ele>
        <time>2022-06-09T21:20:09Z</time>
      </trkpt>
      <trkpt lat="45.67013" lon="6.56527">
        <ele>1678</ele>
        <time>2022-06-09T21:20:13Z</time>
      </trkpt>
      <trkpt lat="45.67049" lon="6.56551">
        <ele>1671</ele>
        <time>2022-06-09T21:20:23Z</time>
      </trkpt>
      <trkpt lat="45.67051" lon="6.56511">
        <ele>1666</ele>
        <time>2022-06-09T21:20:29Z</time>
      </trkpt>
      <trkpt lat="45.67073" lon="6.56509">
        <ele>1660</ele>
        <time>2022-06-09T21:20:34Z</time>
      </trkpt>
      <trkpt lat="45.6712" lon="6.56528">
        <ele>1644</ele>
        <time>2022-06-09T21:20:46Z</time>
      </trkpt>
      <trkpt lat="45.67117" lon="6.56494">
        <ele>1641</ele>
        <time>2022-06-09T21:20:51Z</time>
      </trkpt>
      <trkpt lat="45.67135" lon="6.56489">
        <ele>1633</ele>
        <time>2022-06-09T21:20:55Z</time>
      </trkpt>
      <trkpt lat="45.67151" lon="6.56508">
        <ele>1630</ele>
        <time>2022-06-09T21:21:00Z</time>
      </trkpt>
      <trkpt lat="45.6715" lon="6.56471">
        <ele>1623</ele>
        <time>2022-06-09T21:21:06Z</time>
      </trkpt>
      <trkpt lat="45.67169" lon="6.56484">
        <ele>1619</ele>
        <time>2022-06-09T21:21:11Z</time>
      </trkpt>
      <trkpt lat="45.67178" lon="6.56452">
        <ele>1609</ele>
        <time>2022-06-09T21:21:17Z</time>
      </trkpt>
      <trkpt lat="45.67194" lon="6.56465">
        <ele>1605</ele>
        <time>2022-06-09T21:21:21Z</time>
      </trkpt>
      <trkpt lat="45.67221" lon="6.56472">
        <ele>1595</ele>
        <time>2022-06-09T21:21:28Z</time>
      </trkpt>
      <trkpt lat="45.67239" lon="6.56504">
        <ele>1594</ele>
        <time>2022-06-09T21:21:34Z</time>
      </trkpt>
      <trkpt lat="45.67245" lon="6.5646">
        <ele>1583</ele>
        <time>2022-06-09T21:21:42Z</time>
      </trkpt>
      <trkpt lat="45.67266" lon="6.56497">
        <ele>1582</ele>
        <time>2022-06-09T21:21:49Z</time>
      </trkpt>
      <trkpt lat="45.67273" lon="6.56461">
        <ele>1571</ele>
        <time>2022-06-09T21:21:56Z</time>
      </trkpt>
      <trkpt lat="45.67286" lon="6.56493">
        <ele>1571</ele>
        <time>2022-06-09T21:22:02Z</time>
      </trkpt>
      <trkpt lat="45.67294" lon="6.56418">
        <ele>1556</ele>
        <time>2022-06-09T21:22:14Z</time>
      </trkpt>
      <trkpt lat="45.67298" lon="6.56473">
        <ele>1563</ele>
        <time>2022-06-09T21:22:23Z</time>
      </trkpt>
      <trkpt lat="45.67342" lon="6.56558">
        <ele>1545</ele>
        <time>2022-06-09T21:22:40Z</time>
      </trkpt>
      <trkpt lat="45.67355" lon="6.56529">
        <ele>1540</ele>
        <time>2022-06-09T21:22:46Z</time>
      </trkpt>
      <trkpt lat="45.6738" lon="6.56545">
        <ele>1529</ele>
        <time>2022-06-09T21:22:52Z</time>
      </trkpt>
      <trkpt lat="45.67384" lon="6.56571">
        <ele>1528</ele>
        <time>2022-06-09T21:22:57Z</time>
      </trkpt>
      <trkpt lat="45.67428" lon="6.56581">
        <ele>1511</ele>
        <time>2022-06-09T21:23:07Z</time>
      </trkpt>
      <trkpt lat="45.67476" lon="6.56588">
        <ele>1495</ele>
        <time>2022-06-09T21:23:18Z</time>
      </trkpt>
      <trkpt lat="45.67501" lon="6.56573">
        <ele>1487</ele>
        <time>2022-06-09T21:23:25Z</time>
      </trkpt>
      <trkpt lat="45.67512" lon="6.56586">
        <ele>1483</ele>
        <time>2022-06-09T21:23:28Z</time>
      </trkpt>
      <trkpt lat="45.67527" lon="6.56577">
        <ele>1476</ele>
        <time>2022-06-09T21:23:32Z</time>
      </trkpt>
      <trkpt lat="45.67556" lon="6.56589">
        <ele>1465</ele>
        <time>2022-06-09T21:23:39Z</time>
      </trkpt>
      <trkpt lat="45.67575" lon="6.56613">
        <ele>1454</ele>
        <time>2022-06-09T21:23:45Z</time>
      </trkpt>
      <trkpt lat="45.67595" lon="6.56564">
        <ele>1444</ele>
        <time>2022-06-09T21:23:54Z</time>
      </trkpt>
      <trkpt lat="45.67615" lon="6.56623">
        <ele>1435</ele>
        <time>2022-06-09T21:24:05Z</time>
      </trkpt>
      <trkpt lat="45.67633" lon="6.56595">
        <ele>1428</ele>
        <time>2022-06-09T21:24:11Z</time>
      </trkpt>
      <trkpt lat="45.67646" lon="6.56618">
        <ele>1420</ele>
        <time>2022-06-09T21:24:16Z</time>
      </trkpt>
      <trkpt lat="45.67651" lon="6.56592">
        <ele>1419</ele>
        <time>2022-06-09T21:24:20Z</time>
      </trkpt>
      <trkpt lat="45.67665" lon="6.56606">
        <ele>1411</ele>
        <time>2022-06-09T21:24:24Z</time>
      </trkpt>
      <trkpt lat="45.6767" lon="6.56585">
        <ele>1409</ele>
        <time>2022-06-09T21:24:28Z</time>
      </trkpt>
      <trkpt lat="45.67689" lon="6.56577">
        <ele>1400</ele>
        <time>2022-06-09T21:24:32Z</time>
      </trkpt>
      <trkpt lat="45.67731" lon="6.56649">
        <ele>1382</ele>
        <time>2022-06-09T21:24:48Z</time>
      </trkpt>
      <trkpt lat="45.67746" lon="6.56647">
        <ele>1376</ele>
        <time>2022-06-09T21:24:51Z</time>
      </trkpt>
      <trkpt lat="45.67754" lon="6.56631">
        <ele>1372</ele>
        <time>2022-06-09T21:24:54Z</time>
      </trkpt>
      <trkpt lat="45.67791" lon="6.56665">
        <ele>1354</ele>
        <time>2022-06-09T21:25:05Z</time>
      </trkpt>
      <trkpt lat="45.67803" lon="6.56602">
        <ele>1342</ele>
        <time>2022-06-09T21:25:15Z</time>
      </trkpt>
      <trkpt lat="45.67821" lon="6.56614">
        <ele>1332</ele>
        <time>2022-06-09T21:25:20Z</time>
      </trkpt>
      <trkpt lat="45.67825" lon="6.5659">
        <ele>1327</ele>
        <time>2022-06-09T21:25:24Z</time>
      </trkpt>
      <trkpt lat="45.6786" lon="6.56647">
        <ele>1315</ele>
        <time>2022-06-09T21:25:36Z</time>
      </trkpt>
      <trkpt lat="45.67869" lon="6.56623">
        <ele>1307</ele>
        <time>2022-06-09T21:25:41Z</time>
      </trkpt>
      <trkpt lat="45.67902" lon="6.56657">
        <ele>1293</ele>
        <time>2022-06-09T21:25:50Z</time>
      </trkpt>
      <trkpt lat="45.67891" lon="6.56611">
        <ele>1295</ele>
        <time>2022-06-09T21:25:58Z</time>
      </trkpt>
      <trkpt lat="45.67891" lon="6.5658">
        <ele>1291</ele>
        <time>2022-06-09T21:26:03Z</time>
      </trkpt>
      <trkpt lat="45.67907" lon="6.56543">
        <ele>1269</ele>
        <time>2022-06-09T21:26:10Z</time>
      </trkpt>
      <trkpt lat="45.67928" lon="6.56558">
        <ele>1265</ele>
        <time>2022-06-09T21:26:16Z</time>
      </trkpt>
      <trkpt lat="45.67961" lon="6.5656">
        <ele>1252</ele>
        <time>2022-06-09T21:26:24Z</time>
      </trkpt>
      <trkpt lat="45.67993" lon="6.56573">
        <ele>1243</ele>
        <time>2022-06-09T21:26:31Z</time>
      </trkpt>
      <trkpt lat="45.68021" lon="6.56577">
        <ele>1232</ele>
        <time>2022-06-09T21:26:38Z</time>
      </trkpt>
      <trkpt lat="45.6807" lon="6.56563">
        <ele>1204</ele>
        <time>2022-06-09T21:26:50Z</time>
      </trkpt>
      <trkpt lat="45.68117" lon="6.56573">
        <ele>1185</ele>
        <time>2022-06-09T21:27:01Z</time>
      </trkpt>
      <trkpt lat="45.68131" lon="6.56549">
        <ele>1171</ele>
        <time>2022-06-09T21:27:06Z</time>
      </trkpt>
      <trkpt lat="45.68156" lon="6.56545">
        <ele>1158</ele>
        <time>2022-06-09T21:27:12Z</time>
      </trkpt>
      <trkpt lat="45.68167" lon="6.56573">
        <ele>1161</ele>
        <time>2022-06-09T21:27:17Z</time>
      </trkpt>
      <trkpt lat="45.68171" lon="6.56555">
        <ele>1154</ele>
        <time>2022-06-09T21:27:20Z</time>
      </trkpt>
      <trkpt lat="45.68224" lon="6.56571">
        <ele>1137</ele>
        <time>2022-06-09T21:27:33Z</time>
      </trkpt>
      <trkpt lat="45.68267" lon="6.5663">
        <ele>1128</ele>
        <time>2022-06-09T21:27:47Z</time>
      </trkpt>
      <trkpt lat="45.68299" lon="6.56692">
        <ele>1122</ele>
        <time>2022-06-09T21:27:59Z</time>
      </trkpt>
      <trkpt lat="45.68319" lon="6.56754">
        <ele>1116</ele>
        <time>2022-06-09T21:28:10Z</time>
      </trkpt>
      <trkpt lat="45.68322" lon="6.56801">
        <ele>1109</ele>
        <time>2022-06-09T21:28:18Z</time>
      </trkpt>
      <trkpt lat="45.68373" lon="6.56785">
        <ele>1084</ele>
        <time>2022-06-09T21:28:30Z</time>
      </trkpt>
      <trkpt lat="45.68341" lon="6.56872">
        <ele>1096</ele>
        <time>2022-06-09T21:28:46Z</time>
      </trkpt>
      <trkpt lat="45.68377" lon="6.569">
        <ele>1075</ele>
        <time>2022-06-09T21:28:56Z</time>
      </trkpt>
      <trkpt lat="45.68402" lon="6.56967">
        <ele>1064</ele>
        <time>2022-06-09T21:29:08Z</time>
      </trkpt>
      <trkpt lat="45.68435" lon="6.56981">
        <ele>1056</ele>
        <time>2022-06-09T21:29:16Z</time>
      </trkpt>
      <trkpt lat="45.68459" lon="6.5694">
        <ele>1052</ele>
        <time>2022-06-09T21:29:25Z</time>
      </trkpt>
      <trkpt lat="45.68496" lon="6.5696">
        <ele>1052</ele>
        <time>2022-06-09T21:29:34Z</time>
      </trkpt>
      <trkpt lat="45.68547" lon="6.56961">
        <ele>1050</ele>
        <time>2022-06-09T21:29:46Z</time>
      </trkpt>
      <trkpt lat="45.68547" lon="6.56925">
        <ele>1046</ele>
        <time>2022-06-09T21:29:52Z</time>
      </trkpt>
      <trkpt lat="45.68533" lon="6.56898">
        <ele>1044</ele>
        <time>2022-06-09T21:29:57Z</time>
      </trkpt>
      <trkpt lat="45.68545" lon="6.56875">
        <ele>1041</ele>
        <time>2022-06-09T21:30:02Z</time>
      </trkpt>
      <trkpt lat="45.68521" lon="6.56862">
        <ele>1040</ele>
        <time>2022-06-09T21:30:08Z</time>
      </trkpt>
      <trkpt lat="45.6855" lon="6.56795">
        <ele>1033</ele>
        <time>2022-06-09T21:30:21Z</time>
      </trkpt>
      <trkpt lat="45.68561" lon="6.56764">
        <ele>1030</ele>
        <time>2022-06-09T21:30:27Z</time>
      </trkpt>
      <trkpt lat="45.68573" lon="6.56719">
        <ele>1025</ele>
        <time>2022-06-09T21:30:34Z</time>
      </trkpt>
      <trkpt lat="45.6858" lon="6.56705">
        <ele>1023</ele>
        <time>2022-06-09T21:30:37Z</time>
      </trkpt>
      <trkpt lat="45.68578" lon="6.56686">
        <ele>1021</ele>
        <time>2022-06-09T21:30:40Z</time>
      </trkpt>
      <trkpt lat="45.68598" lon="6.56658">
        <ele>1018</ele>
        <time>2022-06-09T21:30:47Z</time>
      </trkpt>
      <trkpt lat="45.68591" lon="6.56631">
        <ele>1016</ele>
        <time>2022-06-09T21:30:52Z</time>
      </trkpt>
      <trkpt lat="45.68601" lon="6.56615">
        <ele>1015</ele>
        <time>2022-06-09T21:30:55Z</time>
      </trkpt>
      <trkpt lat="45.68578" lon="6.56609">
        <ele>1016</ele>
        <time>2022-06-09T21:31:01Z</time>
      </trkpt>
      <trkpt lat="45.68578" lon="6.56589">
        <ele>1015</ele>
        <time>2022-06-09T21:31:04Z</time>
      </trkpt>
      <trkpt lat="45.68562" lon="6.56562">
        <ele>1018</ele>
        <time>2022-06-09T21:31:10Z</time>
      </trkpt>
      <trkpt lat="45.68563" lon="6.56535">
        <ele>1016</ele>
        <time>2022-06-09T21:31:14Z</time>
      </trkpt>
      <trkpt lat="45.68573" lon="6.56519">
        <ele>1014</ele>
        <time>2022-06-09T21:31:18Z</time>
      </trkpt>
      <trkpt lat="45.68751" lon="6.56412">
        <ele>996</ele>
        <time>2022-06-09T21:32:03Z</time>
      </trkpt>
      <trkpt lat="45.68867" lon="6.56353">
        <ele>1004</ele>
        <time>2022-06-09T21:32:31Z</time>
      </trkpt>
      <trkpt lat="45.68908" lon="6.56342">
        <ele>1004</ele>
        <time>2022-06-09T21:32:41Z</time>
      </trkpt>
      <trkpt lat="45.68916" lon="6.56297">
        <ele>1007</ele>
        <time>2022-06-09T21:32:49Z</time>
      </trkpt>
      <trkpt lat="45.68947" lon="6.56258">
        <ele>1012</ele>
        <time>2022-06-09T21:32:58Z</time>
      </trkpt>
      <trkpt lat="45.68995" lon="6.56291">
        <ele>1011</ele>
        <time>2022-06-09T21:33:11Z</time>
      </trkpt>
      <trkpt lat="45.69027" lon="6.56271">
        <ele>1016</ele>
        <time>2022-06-09T21:33:19Z</time>
      </trkpt>
      <trkpt lat="45.68966" lon="6.56223">
        <ele>1019</ele>
        <time>2022-06-09T21:33:35Z</time>
      </trkpt>
      <trkpt lat="45.6892" lon="6.56212">
        <ele>1018</ele>
        <time>2022-06-09T21:33:46Z</time>
      </trkpt>
      <trkpt lat="45.68919" lon="6.56199">
        <ele>1021</ele>
        <time>2022-06-09T21:33:48Z</time>
      </trkpt>
      <trkpt lat="45.6888" lon="6.56168">
        <ele>1030</ele>
        <time>2022-06-09T21:33:59Z</time>
      </trkpt>
      <trkpt lat="45.68873" lon="6.56138">
        <ele>1035</ele>
        <time>2022-06-09T21:34:04Z</time>
      </trkpt>
      <trkpt lat="45.68841" lon="6.56136">
        <ele>1036</ele>
        <time>2022-06-09T21:34:11Z</time>
      </trkpt>
      <trkpt lat="45.68824" lon="6.56177">
        <ele>1033</ele>
        <time>2022-06-09T21:34:19Z</time>
      </trkpt>
      <trkpt lat="45.68808" lon="6.56178">
        <ele>1034</ele>
        <time>2022-06-09T21:34:23Z</time>
      </trkpt>
    </trkseg>
  </trk>
</gpx>